sensor_id;sensor_type;location;lat;lon;timestamp;P1;durP1;ratioP1;P2;durP2;ratioP2
25351;SDS011;13304;48.464;8.712;2023-02-22T00:00:15;7.13;;;4.43;;
25351;SDS011;13304;48.464;8.712;2023-02-22T00:02:48;10.10;;;4.60;;
25351;SDS011;13304;48.464;8.712;2023-02-22T00:05:15;10.85;;;4.70;;
25351;SDS011;13304;48.464;8.712;2023-02-22T00:07:47;8.75;;;4.53;;
25351;SDS011;13304;48.464;8.712;2023-02-22T00:12:47;11.25;;;4.68;;
25351;SDS011;13304;48.464;8.712;2023-02-22T00:15:14;9.23;;;4.78;;
25351;SDS011;13304;48.464;8.712;2023-02-22T00:17:41;10.13;;;4.75;;
25351;SDS011;13304;48.464;8.712;2023-02-22T00:20:08;17.98;;;4.72;;
25351;SDS011;13304;48.464;8.712;2023-02-22T00:22:39;12.55;;;4.38;;
25351;SDS011;13304;48.464;8.712;2023-02-22T00:25:06;9.48;;;5.03;;
25351;SDS011;13304;48.464;8.712;2023-02-22T00:27:32;9.73;;;4.82;;
25351;SDS011;13304;48.464;8.712;2023-02-22T00:29:57;11.80;;;5.25;;
25351;SDS011;13304;48.464;8.712;2023-02-22T00:32:24;9.32;;;5.10;;
25351;SDS011;13304;48.464;8.712;2023-02-22T00:34:50;10.73;;;4.88;;
25351;SDS011;13304;48.464;8.712;2023-02-22T00:37:17;10.98;;;4.68;;
25351;SDS011;13304;48.464;8.712;2023-02-22T00:39:47;9.18;;;4.60;;
25351;SDS011;13304;48.464;8.712;2023-02-22T00:42:14;14.15;;;5.10;;
25351;SDS011;13304;48.464;8.712;2023-02-22T00:44:41;10.23;;;4.90;;
25351;SDS011;13304;48.464;8.712;2023-02-22T00:47:07;9.98;;;5.20;;
25351;SDS011;13304;48.464;8.712;2023-02-22T00:49:33;9.90;;;4.32;;
25351;SDS011;13304;48.464;8.712;2023-02-22T00:51:59;12.60;;;5.38;;
25351;SDS011;13304;48.464;8.712;2023-02-22T00:54:25;8.52;;;4.63;;
25351;SDS011;13304;48.464;8.712;2023-02-22T00:56:51;10.82;;;4.75;;
25351;SDS011;13304;48.464;8.712;2023-02-22T00:59:17;11.23;;;4.60;;
25351;SDS011;13304;48.464;8.712;2023-02-22T01:01:43;9.25;;;5.35;;
25351;SDS011;13304;48.464;8.712;2023-02-22T01:04:09;12.88;;;4.65;;
25351;SDS011;13304;48.464;8.712;2023-02-22T01:06:35;8.90;;;4.43;;
25351;SDS011;13304;48.464;8.712;2023-02-22T01:09:01;9.27;;;4.38;;
25351;SDS011;13304;48.464;8.712;2023-02-22T01:11:27;7.18;;;4.15;;
25351;SDS011;13304;48.464;8.712;2023-02-22T01:13:53;12.07;;;4.95;;
25351;SDS011;13304;48.464;8.712;2023-02-22T01:16:20;9.20;;;4.43;;
25351;SDS011;13304;48.464;8.712;2023-02-22T01:18:46;9.40;;;4.63;;
25351;SDS011;13304;48.464;8.712;2023-02-22T01:21:12;18.75;;;5.15;;
25351;SDS011;13304;48.464;8.712;2023-02-22T01:23:38;7.60;;;4.15;;
25351;SDS011;13304;48.464;8.712;2023-02-22T01:26:03;10.40;;;4.13;;
25351;SDS011;13304;48.464;8.712;2023-02-22T01:28:33;8.88;;;4.43;;
25351;SDS011;13304;48.464;8.712;2023-02-22T01:30:59;8.23;;;4.63;;
25351;SDS011;13304;48.464;8.712;2023-02-22T01:33:25;14.32;;;5.32;;
25351;SDS011;13304;48.464;8.712;2023-02-22T01:35:51;8.50;;;4.40;;
25351;SDS011;13304;48.464;8.712;2023-02-22T01:38:17;8.70;;;4.38;;
25351;SDS011;13304;48.464;8.712;2023-02-22T01:40:45;12.18;;;4.95;;
25351;SDS011;13304;48.464;8.712;2023-02-22T01:48:19;10.75;;;4.70;;
25351;SDS011;13304;48.464;8.712;2023-02-22T01:50:53;14.25;;;4.90;;
25351;SDS011;13304;48.464;8.712;2023-02-22T01:54:02;8.75;;;4.03;;
25351;SDS011;13304;48.464;8.712;2023-02-22T01:56:29;11.80;;;4.38;;
25351;SDS011;13304;48.464;8.712;2023-02-22T01:59:00;8.50;;;4.45;;
25351;SDS011;13304;48.464;8.712;2023-02-22T02:01:30;9.52;;;4.55;;
25351;SDS011;13304;48.464;8.712;2023-02-22T02:03:57;8.68;;;4.63;;
25351;SDS011;13304;48.464;8.712;2023-02-22T02:06:26;7.65;;;4.45;;
25351;SDS011;13304;48.464;8.712;2023-02-22T02:11:41;10.77;;;4.55;;
25351;SDS011;13304;48.464;8.712;2023-02-22T02:14:08;8.38;;;5.05;;
25351;SDS011;13304;48.464;8.712;2023-02-22T02:16:39;12.80;;;5.40;;
25351;SDS011;13304;48.464;8.712;2023-02-22T02:19:31;9.85;;;4.90;;
25351;SDS011;13304;48.464;8.712;2023-02-22T02:22:25;7.97;;;4.53;;
25351;SDS011;13304;48.464;8.712;2023-02-22T02:30:48;8.18;;;4.45;;
25351;SDS011;13304;48.464;8.712;2023-02-22T02:33:41;9.27;;;4.47;;
25351;SDS011;13304;48.464;8.712;2023-02-22T02:36:17;12.68;;;4.78;;
25351;SDS011;13304;48.464;8.712;2023-02-22T02:42:27;15.75;;;5.13;;
25351;SDS011;13304;48.464;8.712;2023-02-22T02:45:12;9.90;;;4.50;;
25351;SDS011;13304;48.464;8.712;2023-02-22T02:47:46;10.20;;;4.20;;
25351;SDS011;13304;48.464;8.712;2023-02-22T02:50:19;9.50;;;4.40;;
25351;SDS011;13304;48.464;8.712;2023-02-22T02:52:49;12.95;;;4.72;;
25351;SDS011;13304;48.464;8.712;2023-02-22T02:55:17;17.23;;;4.63;;
25351;SDS011;13304;48.464;8.712;2023-02-22T02:57:44;8.45;;;4.55;;
25351;SDS011;13304;48.464;8.712;2023-02-22T03:00:10;9.82;;;4.97;;
25351;SDS011;13304;48.464;8.712;2023-02-22T03:08:19;10.52;;;4.95;;
25351;SDS011;13304;48.464;8.712;2023-02-22T03:11:06;11.07;;;5.35;;
25351;SDS011;13304;48.464;8.712;2023-02-22T03:16:31;8.20;;;4.47;;
25351;SDS011;13304;48.464;8.712;2023-02-22T03:19:07;10.88;;;4.88;;
25351;SDS011;13304;48.464;8.712;2023-02-22T03:21:49;10.30;;;4.75;;
25351;SDS011;13304;48.464;8.712;2023-02-22T03:27:19;11.43;;;5.13;;
25351;SDS011;13304;48.464;8.712;2023-02-22T03:29:43;10.27;;;5.05;;
25351;SDS011;13304;48.464;8.712;2023-02-22T03:32:15;11.73;;;4.97;;
25351;SDS011;13304;48.464;8.712;2023-02-22T03:34:45;10.65;;;4.68;;
25351;SDS011;13304;48.464;8.712;2023-02-22T03:37:18;11.35;;;4.90;;
25351;SDS011;13304;48.464;8.712;2023-02-22T03:39:48;10.27;;;4.88;;
25351;SDS011;13304;48.464;8.712;2023-02-22T03:42:20;11.60;;;4.70;;
25351;SDS011;13304;48.464;8.712;2023-02-22T03:44:50;10.68;;;5.00;;
25351;SDS011;13304;48.464;8.712;2023-02-22T03:47:20;10.63;;;5.03;;
25351;SDS011;13304;48.464;8.712;2023-02-22T03:49:55;10.63;;;5.28;;
25351;SDS011;13304;48.464;8.712;2023-02-22T03:52:26;8.63;;;5.15;;
25351;SDS011;13304;48.464;8.712;2023-02-22T03:54:51;11.23;;;4.75;;
25351;SDS011;13304;48.464;8.712;2023-02-22T03:57:20;9.73;;;5.03;;
25351;SDS011;13304;48.464;8.712;2023-02-22T03:59:50;7.05;;;4.40;;
25351;SDS011;13304;48.464;8.712;2023-02-22T04:02:16;10.45;;;4.75;;
25351;SDS011;13304;48.464;8.712;2023-02-22T04:04:43;10.50;;;4.90;;
25351;SDS011;13304;48.464;8.712;2023-02-22T04:07:10;11.75;;;4.97;;
25351;SDS011;13304;48.464;8.712;2023-02-22T04:09:36;10.43;;;5.25;;
25351;SDS011;13304;48.464;8.712;2023-02-22T04:12:02;8.95;;;4.45;;
25351;SDS011;13304;48.464;8.712;2023-02-22T04:14:28;10.52;;;5.22;;
25351;SDS011;13304;48.464;8.712;2023-02-22T04:16:54;13.15;;;5.80;;
25351;SDS011;13304;48.464;8.712;2023-02-22T04:19:20;12.13;;;5.63;;
25351;SDS011;13304;48.464;8.712;2023-02-22T04:21:46;12.32;;;7.25;;
25351;SDS011;13304;48.464;8.712;2023-02-22T04:24:12;20.25;;;10.05;;
25351;SDS011;13304;48.464;8.712;2023-02-22T04:26:38;16.77;;;7.03;;
25351;SDS011;13304;48.464;8.712;2023-02-22T04:29:04;12.77;;;5.60;;
25351;SDS011;13304;48.464;8.712;2023-02-22T04:31:30;11.15;;;5.38;;
25351;SDS011;13304;48.464;8.712;2023-02-22T04:33:57;9.55;;;5.55;;
25351;SDS011;13304;48.464;8.712;2023-02-22T04:36:23;10.55;;;5.65;;
25351;SDS011;13304;48.464;8.712;2023-02-22T04:38:51;11.77;;;6.17;;
25351;SDS011;13304;48.464;8.712;2023-02-22T04:41:19;13.15;;;5.07;;
25351;SDS011;13304;48.464;8.712;2023-02-22T04:43:45;9.07;;;5.15;;
25351;SDS011;13304;48.464;8.712;2023-02-22T04:46:11;9.98;;;4.93;;
25351;SDS011;13304;48.464;8.712;2023-02-22T04:48:37;13.10;;;5.13;;
25351;SDS011;13304;48.464;8.712;2023-02-22T04:51:03;11.83;;;4.80;;
25351;SDS011;13304;48.464;8.712;2023-02-22T04:53:29;12.53;;;5.03;;
25351;SDS011;13304;48.464;8.712;2023-02-22T04:55:55;10.50;;;4.70;;
25351;SDS011;13304;48.464;8.712;2023-02-22T04:58:20;7.35;;;4.15;;
25351;SDS011;13304;48.464;8.712;2023-02-22T05:00:46;10.53;;;4.83;;
25351;SDS011;13304;48.464;8.712;2023-02-22T05:03:12;9.03;;;4.97;;
25351;SDS011;13304;48.464;8.712;2023-02-22T05:05:38;13.27;;;4.70;;
25351;SDS011;13304;48.464;8.712;2023-02-22T05:08:04;9.03;;;4.63;;
25351;SDS011;13304;48.464;8.712;2023-02-22T05:10:30;18.13;;;5.53;;
25351;SDS011;13304;48.464;8.712;2023-02-22T05:12:56;13.67;;;5.90;;
25351;SDS011;13304;48.464;8.712;2023-02-22T05:15:22;11.17;;;5.17;;
25351;SDS011;13304;48.464;8.712;2023-02-22T05:17:49;12.50;;;5.03;;
25351;SDS011;13304;48.464;8.712;2023-02-22T05:20:17;6.57;;;4.30;;
25351;SDS011;13304;48.464;8.712;2023-02-22T05:22:54;9.23;;;5.33;;
25351;SDS011;13304;48.464;8.712;2023-02-22T05:25:20;9.13;;;4.93;;
25351;SDS011;13304;48.464;8.712;2023-02-22T05:27:50;9.27;;;4.67;;
25351;SDS011;13304;48.464;8.712;2023-02-22T05:30:32;12.70;;;4.70;;
25351;SDS011;13304;48.464;8.712;2023-02-22T05:32:59;8.98;;;4.55;;
25351;SDS011;13304;48.464;8.712;2023-02-22T05:35:25;10.17;;;4.77;;
25351;SDS011;13304;48.464;8.712;2023-02-22T05:37:52;10.90;;;5.07;;
25351;SDS011;13304;48.464;8.712;2023-02-22T05:40:19;39.50;;;15.90;;
25351;SDS011;13304;48.464;8.712;2023-02-22T05:42:46;23.57;;;13.27;;
25351;SDS011;13304;48.464;8.712;2023-02-22T05:45:13;14.83;;;7.27;;
25351;SDS011;13304;48.464;8.712;2023-02-22T05:47:41;12.10;;;5.00;;
25351;SDS011;13304;48.464;8.712;2023-02-22T05:50:07;12.33;;;5.00;;
25351;SDS011;13304;48.464;8.712;2023-02-22T05:52:34;11.20;;;4.77;;
25351;SDS011;13304;48.464;8.712;2023-02-22T05:54:59;9.73;;;5.13;;
25351;SDS011;13304;48.464;8.712;2023-02-22T05:57:25;10.23;;;5.30;;
25351;SDS011;13304;48.464;8.712;2023-02-22T05:59:52;20.90;;;5.40;;
25351;SDS011;13304;48.464;8.712;2023-02-22T06:02:17;14.60;;;5.80;;
25351;SDS011;13304;48.464;8.712;2023-02-22T06:04:44;16.57;;;5.43;;
25351;SDS011;13304;48.464;8.712;2023-02-22T06:07:10;8.68;;;4.35;;
25351;SDS011;13304;48.464;8.712;2023-02-22T06:09:37;9.33;;;4.33;;
25351;SDS011;13304;48.464;8.712;2023-02-22T06:12:03;8.80;;;4.97;;
25351;SDS011;13304;48.464;8.712;2023-02-22T06:14:29;10.73;;;4.93;;
25351;SDS011;13304;48.464;8.712;2023-02-22T06:16:57;12.80;;;4.63;;
25351;SDS011;13304;48.464;8.712;2023-02-22T06:19:25;8.43;;;4.33;;
25351;SDS011;13304;48.464;8.712;2023-02-22T06:21:52;12.50;;;5.10;;
25351;SDS011;13304;48.464;8.712;2023-02-22T06:24:19;11.40;;;5.40;;
25351;SDS011;13304;48.464;8.712;2023-02-22T06:26:45;32.73;;;12.80;;
25351;SDS011;13304;48.464;8.712;2023-02-22T06:29:11;12.60;;;6.07;;
25351;SDS011;13304;48.464;8.712;2023-02-22T06:31:37;12.57;;;5.70;;
25351;SDS011;13304;48.464;8.712;2023-02-22T06:34:03;17.37;;;5.33;;
25351;SDS011;13304;48.464;8.712;2023-02-22T06:36:29;12.70;;;6.83;;
25351;SDS011;13304;48.464;8.712;2023-02-22T06:38:55;13.40;;;6.77;;
25351;SDS011;13304;48.464;8.712;2023-02-22T06:41:21;9.57;;;6.47;;
25351;SDS011;13304;48.464;8.712;2023-02-22T06:43:48;13.57;;;5.77;;
25351;SDS011;13304;48.464;8.712;2023-02-22T06:46:14;12.77;;;5.50;;
25351;SDS011;13304;48.464;8.712;2023-02-22T06:48:40;15.27;;;7.70;;
25351;SDS011;13304;48.464;8.712;2023-02-22T06:51:09;15.77;;;8.30;;
25351;SDS011;13304;48.464;8.712;2023-02-22T06:53:35;13.43;;;7.53;;
25351;SDS011;13304;48.464;8.712;2023-02-22T06:56:00;15.17;;;8.53;;
25351;SDS011;13304;48.464;8.712;2023-02-22T06:58:27;10.02;;;6.75;;
25351;SDS011;13304;48.464;8.712;2023-02-22T07:00:53;16.25;;;6.15;;
25351;SDS011;13304;48.464;8.712;2023-02-22T07:03:19;14.43;;;7.60;;
25351;SDS011;13304;48.464;8.712;2023-02-22T07:05:45;25.37;;;8.17;;
25351;SDS011;13304;48.464;8.712;2023-02-22T07:08:11;17.10;;;7.00;;
25351;SDS011;13304;48.464;8.712;2023-02-22T07:10:37;10.45;;;5.60;;
25351;SDS011;13304;48.464;8.712;2023-02-22T07:13:04;11.95;;;6.35;;
25351;SDS011;13304;48.464;8.712;2023-02-22T07:15:32;18.25;;;5.35;;
25351;SDS011;13304;48.464;8.712;2023-02-22T07:17:59;18.23;;;6.18;;
25351;SDS011;13304;48.464;8.712;2023-02-22T07:20:26;11.13;;;5.40;;
25351;SDS011;13304;48.464;8.712;2023-02-22T07:22:53;10.43;;;5.28;;
25351;SDS011;13304;48.464;8.712;2023-02-22T07:25:19;13.85;;;5.28;;
25351;SDS011;13304;48.464;8.712;2023-02-22T07:27:45;12.93;;;5.15;;
25351;SDS011;13304;48.464;8.712;2023-02-22T07:32:48;14.73;;;5.50;;
25351;SDS011;13304;48.464;8.712;2023-02-22T07:35:16;11.75;;;5.03;;
25351;SDS011;13304;48.464;8.712;2023-02-22T07:40:10;24.95;;;6.30;;
25351;SDS011;13304;48.464;8.712;2023-02-22T07:45:22;12.15;;;5.70;;
25351;SDS011;13304;48.464;8.712;2023-02-22T07:47:50;11.43;;;5.93;;
25351;SDS011;13304;48.464;8.712;2023-02-22T07:50:16;12.63;;;5.65;;
25351;SDS011;13304;48.464;8.712;2023-02-22T07:52:47;20.98;;;6.50;;
25351;SDS011;13304;48.464;8.712;2023-02-22T07:55:14;10.48;;;5.43;;
25351;SDS011;13304;48.464;8.712;2023-02-22T07:57:41;9.60;;;5.57;;
25351;SDS011;13304;48.464;8.712;2023-02-22T08:00:08;9.30;;;5.53;;
25351;SDS011;13304;48.464;8.712;2023-02-22T08:02:34;14.73;;;5.15;;
25351;SDS011;13304;48.464;8.712;2023-02-22T08:05:00;12.82;;;5.53;;
25351;SDS011;13304;48.464;8.712;2023-02-22T08:07:25;11.00;;;5.45;;
25351;SDS011;13304;48.464;8.712;2023-02-22T08:09:51;10.52;;;5.63;;
25351;SDS011;13304;48.464;8.712;2023-02-22T08:12:17;14.80;;;5.85;;
25351;SDS011;13304;48.464;8.712;2023-02-22T08:14:43;173.45;;;12.88;;
25351;SDS011;13304;48.464;8.712;2023-02-22T08:17:08;23.88;;;6.00;;
25351;SDS011;13304;48.464;8.712;2023-02-22T08:19:34;10.75;;;5.80;;
25351;SDS011;13304;48.464;8.712;2023-02-22T08:22:00;13.63;;;5.47;;
25351;SDS011;13304;48.464;8.712;2023-02-22T08:24:25;13.65;;;5.78;;
25351;SDS011;13304;48.464;8.712;2023-02-22T08:26:51;13.80;;;5.50;;
25351;SDS011;13304;48.464;8.712;2023-02-22T08:29:17;12.98;;;5.28;;
25351;SDS011;13304;48.464;8.712;2023-02-22T08:31:48;10.32;;;5.60;;
25351;SDS011;13304;48.464;8.712;2023-02-22T08:34:17;12.98;;;5.47;;
25351;SDS011;13304;48.464;8.712;2023-02-22T08:36:44;10.70;;;5.53;;
25351;SDS011;13304;48.464;8.712;2023-02-22T08:39:09;11.50;;;5.00;;
25351;SDS011;13304;48.464;8.712;2023-02-22T08:41:35;8.48;;;5.13;;
25351;SDS011;13304;48.464;8.712;2023-02-22T08:44:01;9.43;;;5.05;;
25351;SDS011;13304;48.464;8.712;2023-02-22T08:46:27;13.35;;;5.15;;
25351;SDS011;13304;48.464;8.712;2023-02-22T08:48:53;9.82;;;5.50;;
25351;SDS011;13304;48.464;8.712;2023-02-22T08:51:19;11.48;;;5.57;;
25351;SDS011;13304;48.464;8.712;2023-02-22T08:53:45;10.90;;;5.10;;
25351;SDS011;13304;48.464;8.712;2023-02-22T08:56:11;8.82;;;5.13;;
25351;SDS011;13304;48.464;8.712;2023-02-22T08:58:36;8.90;;;5.03;;
25351;SDS011;13304;48.464;8.712;2023-02-22T09:01:02;10.63;;;5.60;;
25351;SDS011;13304;48.464;8.712;2023-02-22T09:03:28;10.02;;;5.35;;
25351;SDS011;13304;48.464;8.712;2023-02-22T09:05:54;16.45;;;5.78;;
25351;SDS011;13304;48.464;8.712;2023-02-22T09:08:20;10.27;;;5.15;;
25351;SDS011;13304;48.464;8.712;2023-02-22T09:10:46;9.77;;;5.22;;
25351;SDS011;13304;48.464;8.712;2023-02-22T09:13:16;10.07;;;5.57;;
25351;SDS011;13304;48.464;8.712;2023-02-22T09:15:41;8.85;;;4.82;;
25351;SDS011;13304;48.464;8.712;2023-02-22T09:18:08;9.77;;;5.07;;
25351;SDS011;13304;48.464;8.712;2023-02-22T09:20:35;11.35;;;5.60;;
25351;SDS011;13304;48.464;8.712;2023-02-22T09:23:02;11.27;;;5.82;;
25351;SDS011;13304;48.464;8.712;2023-02-22T09:25:29;10.07;;;5.80;;
25351;SDS011;13304;48.464;8.712;2023-02-22T09:27:55;11.55;;;6.28;;
25351;SDS011;13304;48.464;8.712;2023-02-22T09:30:33;12.40;;;6.05;;
25351;SDS011;13304;48.464;8.712;2023-02-22T09:33:04;10.48;;;5.55;;
25351;SDS011;13304;48.464;8.712;2023-02-22T09:35:35;12.15;;;5.85;;
25351;SDS011;13304;48.464;8.712;2023-02-22T09:38:01;9.57;;;5.32;;
25351;SDS011;13304;48.464;8.712;2023-02-22T09:40:31;13.93;;;6.15;;
25351;SDS011;13304;48.464;8.712;2023-02-22T09:48:12;11.63;;;5.93;;
25351;SDS011;13304;48.464;8.712;2023-02-22T09:50:40;11.38;;;5.57;;
25351;SDS011;13304;48.464;8.712;2023-02-22T09:55:40;13.35;;;6.10;;
25351;SDS011;13304;48.464;8.712;2023-02-22T10:07:04;10.25;;;4.88;;
25351;SDS011;13304;48.464;8.712;2023-02-22T10:09:40;10.52;;;5.07;;
25351;SDS011;13304;48.464;8.712;2023-02-22T10:12:28;11.02;;;5.70;;
25351;SDS011;13304;48.464;8.712;2023-02-22T10:23:13;10.60;;;4.50;;
25351;SDS011;13304;48.464;8.712;2023-02-22T10:25:59;10.07;;;4.53;;
25351;SDS011;13304;48.464;8.712;2023-02-22T10:28:41;9.15;;;4.72;;
25351;SDS011;13304;48.464;8.712;2023-02-22T10:31:24;9.77;;;4.90;;
25351;SDS011;13304;48.464;8.712;2023-02-22T10:33:57;12.05;;;4.88;;
25351;SDS011;13304;48.464;8.712;2023-02-22T10:36:26;5.50;;;3.63;;
25351;SDS011;13304;48.464;8.712;2023-02-22T10:38:57;7.72;;;4.00;;
25351;SDS011;13304;48.464;8.712;2023-02-22T10:41:30;9.40;;;4.28;;
25351;SDS011;13304;48.464;8.712;2023-02-22T10:44:00;10.02;;;4.05;;
25351;SDS011;13304;48.464;8.712;2023-02-22T10:46:27;9.18;;;4.40;;
25351;SDS011;13304;48.464;8.712;2023-02-22T10:48:56;8.05;;;4.22;;
25351;SDS011;13304;48.464;8.712;2023-02-22T10:51:27;8.55;;;4.03;;
25351;SDS011;13304;48.464;8.712;2023-02-22T10:54:35;6.75;;;3.65;;
25351;SDS011;13304;48.464;8.712;2023-02-22T10:56:51;6.55;;;3.33;;
25351;SDS011;13304;48.464;8.712;2023-02-22T10:59:53;11.50;;;3.65;;
25351;SDS011;13304;48.464;8.712;2023-02-22T11:04:44;7.40;;;3.05;;
25351;SDS011;13304;48.464;8.712;2023-02-22T11:07:22;4.57;;;3.30;;
25351;SDS011;13304;48.464;8.712;2023-02-22T11:09:56;5.95;;;3.42;;
25351;SDS011;13304;48.464;8.712;2023-02-22T11:17:41;5.05;;;3.25;;
25351;SDS011;13304;48.464;8.712;2023-02-22T11:20:19;6.00;;;3.40;;
25351;SDS011;13304;48.464;8.712;2023-02-22T11:22:53;5.78;;;3.03;;
25351;SDS011;13304;48.464;8.712;2023-02-22T11:25:25;6.07;;;2.72;;
25351;SDS011;13304;48.464;8.712;2023-02-22T11:28:07;5.85;;;3.03;;
25351;SDS011;13304;48.464;8.712;2023-02-22T11:30:37;4.47;;;2.85;;
25351;SDS011;13304;48.464;8.712;2023-02-22T11:36:00;7.40;;;3.28;;
25351;SDS011;13304;48.464;8.712;2023-02-22T11:38:33;5.82;;;3.42;;
25351;SDS011;13304;48.464;8.712;2023-02-22T11:41:05;7.18;;;3.65;;
25351;SDS011;13304;48.464;8.712;2023-02-22T11:43:40;5.93;;;3.47;;
25351;SDS011;13304;48.464;8.712;2023-02-22T11:48:38;14.98;;;4.55;;
25351;SDS011;13304;48.464;8.712;2023-02-22T11:51:11;8.57;;;4.38;;
25351;SDS011;13304;48.464;8.712;2023-02-22T11:56:56;9.15;;;5.18;;
25351;SDS011;13304;48.464;8.712;2023-02-22T12:02:04;9.85;;;5.80;;
25351;SDS011;13304;48.464;8.712;2023-02-22T12:10:32;10.80;;;5.32;;
25351;SDS011;13304;48.464;8.712;2023-02-22T12:22:03;12.75;;;5.78;;
25351;SDS011;13304;48.464;8.712;2023-02-22T12:24:36;14.02;;;6.18;;
25351;SDS011;13304;48.464;8.712;2023-02-22T12:27:19;9.15;;;5.70;;
25351;SDS011;13304;48.464;8.712;2023-02-22T12:30:25;11.60;;;5.85;;
25351;SDS011;13304;48.464;8.712;2023-02-22T12:32:59;10.32;;;5.85;;
25351;SDS011;13304;48.464;8.712;2023-02-22T12:35:32;13.32;;;6.15;;
25351;SDS011;13304;48.464;8.712;2023-02-22T12:38:08;10.73;;;6.78;;
25351;SDS011;13304;48.464;8.712;2023-02-22T12:41:01;15.82;;;6.65;;
25351;SDS011;13304;48.464;8.712;2023-02-22T12:43:59;8.80;;;6.00;;
25351;SDS011;13304;48.464;8.712;2023-02-22T12:46:37;9.77;;;5.55;;
25351;SDS011;13304;48.464;8.712;2023-02-22T13:02:59;12.20;;;6.82;;
25351;SDS011;13304;48.464;8.712;2023-02-22T13:05:25;16.50;;;6.25;;
25351;SDS011;13304;48.464;8.712;2023-02-22T13:10:59;14.88;;;6.30;;
25351;SDS011;13304;48.464;8.712;2023-02-22T13:14:07;10.38;;;5.72;;
25351;SDS011;13304;48.464;8.712;2023-02-22T13:16:43;11.20;;;6.30;;
25351;SDS011;13304;48.464;8.712;2023-02-22T13:22:20;9.90;;;5.57;;
25351;SDS011;13304;48.464;8.712;2023-02-22T13:25:10;10.52;;;5.88;;
25351;SDS011;13304;48.464;8.712;2023-02-22T13:30:20;11.02;;;5.45;;
25351;SDS011;13304;48.464;8.712;2023-02-22T13:33:28;13.07;;;6.22;;
25351;SDS011;13304;48.464;8.712;2023-02-22T13:42:02;16.55;;;6.13;;
25351;SDS011;13304;48.464;8.712;2023-02-22T13:52:52;13.95;;;6.80;;
25351;SDS011;13304;48.464;8.712;2023-02-22T13:55:21;10.63;;;6.55;;
25351;SDS011;13304;48.464;8.712;2023-02-22T14:00:50;13.10;;;7.07;;
25351;SDS011;13304;48.464;8.712;2023-02-22T14:05:54;14.43;;;7.25;;
25351;SDS011;13304;48.464;8.712;2023-02-22T14:10:55;11.80;;;7.32;;
25351;SDS011;13304;48.464;8.712;2023-02-22T14:13:28;16.33;;;7.82;;
25351;SDS011;13304;48.464;8.712;2023-02-22T14:18:46;14.55;;;8.13;;
25351;SDS011;13304;48.464;8.712;2023-02-22T14:21:15;12.30;;;7.55;;
25351;SDS011;13304;48.464;8.712;2023-02-22T14:31:22;12.38;;;7.40;;
25351;SDS011;13304;48.464;8.712;2023-02-22T14:39:29;14.63;;;7.25;;
25351;SDS011;13304;48.464;8.712;2023-02-22T14:47:29;11.43;;;6.50;;
25351;SDS011;13304;48.464;8.712;2023-02-22T14:50:05;14.70;;;7.10;;
25351;SDS011;13304;48.464;8.712;2023-02-22T14:52:41;14.07;;;6.95;;
25351;SDS011;13304;48.464;8.712;2023-02-22T14:55:20;13.35;;;7.07;;
25351;SDS011;13304;48.464;8.712;2023-02-22T15:00:47;13.50;;;7.57;;
25351;SDS011;13304;48.464;8.712;2023-02-22T15:06:06;13.40;;;8.40;;
25351;SDS011;13304;48.464;8.712;2023-02-22T15:08:39;14.55;;;7.38;;
25351;SDS011;13304;48.464;8.712;2023-02-22T15:11:28;15.80;;;9.48;;
25351;SDS011;13304;48.464;8.712;2023-02-22T15:13:56;20.25;;;8.98;;
25351;SDS011;13304;48.464;8.712;2023-02-22T15:16:32;17.92;;;9.93;;
25351;SDS011;13304;48.464;8.712;2023-02-22T15:18:59;17.63;;;10.48;;
25351;SDS011;13304;48.464;8.712;2023-02-22T15:21:31;14.85;;;10.23;;
25351;SDS011;13304;48.464;8.712;2023-02-22T15:23:59;16.98;;;10.18;;
25351;SDS011;13304;48.464;8.712;2023-02-22T15:29:28;21.65;;;10.57;;
25351;SDS011;13304;48.464;8.712;2023-02-22T15:32:00;14.00;;;9.73;;
25351;SDS011;13304;48.464;8.712;2023-02-22T15:34:27;16.40;;;10.30;;
25351;SDS011;13304;48.464;8.712;2023-02-22T15:36:55;18.13;;;11.07;;
25351;SDS011;13304;48.464;8.712;2023-02-22T15:39:32;21.40;;;11.07;;
25351;SDS011;13304;48.464;8.712;2023-02-22T15:42:06;21.88;;;11.85;;
25351;SDS011;13304;48.464;8.712;2023-02-22T15:44:40;15.95;;;10.57;;
25351;SDS011;13304;48.464;8.712;2023-02-22T15:47:11;18.17;;;11.65;;
25351;SDS011;13304;48.464;8.712;2023-02-22T15:49:42;17.55;;;11.38;;
25351;SDS011;13304;48.464;8.712;2023-02-22T15:52:19;17.35;;;10.75;;
25351;SDS011;13304;48.464;8.712;2023-02-22T15:54:49;20.00;;;10.90;;
25351;SDS011;13304;48.464;8.712;2023-02-22T15:57:19;19.23;;;10.77;;
25351;SDS011;13304;48.464;8.712;2023-02-22T15:59:48;18.85;;;11.32;;
25351;SDS011;13304;48.464;8.712;2023-02-22T16:02:38;19.02;;;11.55;;
25351;SDS011;13304;48.464;8.712;2023-02-22T16:05:06;18.13;;;10.95;;
25351;SDS011;13304;48.464;8.712;2023-02-22T16:07:41;16.35;;;11.23;;
25351;SDS011;13304;48.464;8.712;2023-02-22T16:10:18;19.23;;;11.00;;
25351;SDS011;13304;48.464;8.712;2023-02-22T16:13:01;16.55;;;10.77;;
25351;SDS011;13304;48.464;8.712;2023-02-22T16:15:55;17.08;;;10.70;;
25351;SDS011;13304;48.464;8.712;2023-02-22T16:18:50;24.08;;;11.20;;
25351;SDS011;13304;48.464;8.712;2023-02-22T16:21:19;15.18;;;10.57;;
25351;SDS011;13304;48.464;8.712;2023-02-22T16:23:50;21.25;;;11.80;;
25351;SDS011;13304;48.464;8.712;2023-02-22T16:26:27;22.77;;;11.90;;
25351;SDS011;13304;48.464;8.712;2023-02-22T16:31:27;18.15;;;11.63;;
25351;SDS011;13304;48.464;8.712;2023-02-22T16:34:01;20.00;;;12.32;;
25351;SDS011;13304;48.464;8.712;2023-02-22T16:39:11;23.85;;;12.73;;
25351;SDS011;13304;48.464;8.712;2023-02-22T16:41:49;21.35;;;12.77;;
25351;SDS011;13304;48.464;8.712;2023-02-22T16:44:15;25.30;;;12.88;;
25351;SDS011;13304;48.464;8.712;2023-02-22T16:46:42;20.55;;;12.75;;
25351;SDS011;13304;48.464;8.712;2023-02-22T16:49:11;23.88;;;12.57;;
25351;SDS011;13304;48.464;8.712;2023-02-22T16:54:08;22.13;;;13.63;;
25351;SDS011;13304;48.464;8.712;2023-02-22T16:56:37;21.05;;;13.70;;
25351;SDS011;13304;48.464;8.712;2023-02-22T16:59:06;22.58;;;13.65;;
25351;SDS011;13304;48.464;8.712;2023-02-22T17:01:35;22.50;;;13.43;;
25351;SDS011;13304;48.464;8.712;2023-02-22T17:04:01;27.15;;;13.60;;
25351;SDS011;13304;48.464;8.712;2023-02-22T17:06:28;23.50;;;14.10;;
25351;SDS011;13304;48.464;8.712;2023-02-22T17:08:55;25.63;;;13.50;;
25351;SDS011;13304;48.464;8.712;2023-02-22T17:11:21;24.40;;;14.30;;
25351;SDS011;13304;48.464;8.712;2023-02-22T17:13:48;22.75;;;14.90;;
25351;SDS011;13304;48.464;8.712;2023-02-22T17:16:16;24.60;;;15.40;;
25351;SDS011;13304;48.464;8.712;2023-02-22T17:18:42;27.42;;;14.15;;
25351;SDS011;13304;48.464;8.712;2023-02-22T17:21:09;25.73;;;15.55;;
25351;SDS011;13304;48.464;8.712;2023-02-22T17:23:36;22.88;;;14.45;;
25351;SDS011;13304;48.464;8.712;2023-02-22T17:26:02;22.25;;;14.13;;
25351;SDS011;13304;48.464;8.712;2023-02-22T17:28:28;21.45;;;14.45;;
25351;SDS011;13304;48.464;8.712;2023-02-22T17:30:55;25.50;;;14.85;;
25351;SDS011;13304;48.464;8.712;2023-02-22T17:33:26;23.13;;;13.82;;
25351;SDS011;13304;48.464;8.712;2023-02-22T17:35:55;25.83;;;14.55;;
25351;SDS011;13304;48.464;8.712;2023-02-22T17:38:23;23.45;;;14.25;;
25351;SDS011;13304;48.464;8.712;2023-02-22T17:40:51;24.20;;;14.43;;
25351;SDS011;13304;48.464;8.712;2023-02-22T17:43:18;23.90;;;15.18;;
25351;SDS011;13304;48.464;8.712;2023-02-22T17:45:44;26.27;;;15.05;;
25351;SDS011;13304;48.464;8.712;2023-02-22T17:48:11;25.33;;;13.95;;
25351;SDS011;13304;48.464;8.712;2023-02-22T17:50:38;27.65;;;15.02;;
25351;SDS011;13304;48.464;8.712;2023-02-22T17:53:05;25.08;;;15.10;;